Time;durP1;ratioP1;P1;durP2;ratioP2;P2;SDS_P1;SDS_P2;PMS_P1;PMS_P2;Temp;Humidity;BMP_temperature;BMP_pressure;BME280_temperature;BME280_humidity;BME280_pressure;Samples;Min_cycle;Max_cycle;Signal;HPM_P1;HPM_P2
2021/01/15 00:02:14;;;;;;;4.90;2.60;;;4.40;71.50;;;;;;2490738;55;21032;-87
2021/01/15 00:04:43;;;;;;;4.90;2.40;;;4.40;71.50;;;;;;2487430;55;20965;-85
2021/01/15 00:07:09;;;;;;;4.22;1.85;;;4.50;71.50;;;;;;2487034;55;20961;-85
2021/01/15 00:09:45;;;;;;;4.75;2.20;;;4.50;71.60;;;;;;2487495;55;21017;-84
2021/01/15 00:12:12;;;;;;;3.22;1.40;;;4.50;72.30;;;;;;2491293;55;21031;-84
2021/01/15 00:14:39;;;;;;;2.60;1.30;;;4.50;71.50;;;;;;2265029;56;21839;-82
2021/01/15 00:17:05;;;;;;;3.10;1.37;;;4.50;71.40;;;;;;2472467;55;21048;-83
2021/01/15 00:19:34;;;;;;;3.60;1.52;;;4.40;71.30;;;;;;2479148;55;20989;-84
2021/01/15 00:22:18;;;;;;;3.03;1.37;;;4.40;71.30;;;;;;2508694;55;20972;-84
2021/01/15 00:24:49;;;;;;;2.95;1.30;;;4.40;71.30;;;;;;2491146;55;21040;-85
2021/01/15 00:27:17;;;;;;;2.78;1.23;;;4.40;71.40;;;;;;2487661;55;21032;-84
2021/01/15 00:29:45;;;;;;;3.05;1.40;;;4.40;71.40;;;;;;2492517;55;21000;-82
2021/01/15 00:32:16;;;;;;;2.67;1.10;;;4.40;71.40;;;;;;2493129;55;20937;-84
2021/01/15 00:34:45;;;;;;;2.60;1.27;;;4.40;71.40;;;;;;2492168;55;21568;-83
2021/01/15 00:37:13;;;;;;;2.78;1.25;;;4.40;71.30;;;;;;2489586;55;21495;-84
2021/01/15 00:39:39;;;;;;;3.12;1.25;;;4.40;71.40;;;;;;2485711;55;20953;-83
2021/01/15 00:42:10;;;;;;;2.47;1.20;;;4.30;71.10;;;;;;2489407;55;20937;-83
2021/01/15 00:44:38;;;;;;;2.90;1.27;;;4.40;71.30;;;;;;2490657;55;20925;-82
2021/01/15 00:47:04;;;;;;;3.72;1.33;;;4.40;71.20;;;;;;2489303;55;20985;-83
2021/01/15 00:49:31;;;;;;;3.05;1.50;;;4.40;71.20;;;;;;2489377;55;20981;-83
2021/01/15 00:52:00;;;;;;;2.95;1.25;;;4.30;71.20;;;;;;2491502;55;20974;-84
2021/01/15 00:54:31;;;;;;;3.08;1.30;;;4.30;71.20;;;;;;2491404;55;21012;-83
2021/01/15 00:56:58;;;;;;;2.50;1.23;;;4.30;71.10;;;;;;2492181;55;21536;-84
2021/01/15 00:59:27;;;;;;;3.22;1.50;;;4.30;71.10;;;;;;2486235;55;21416;-84
2021/01/15 01:01:54;;;;;;;3.45;1.60;;;4.30;71.10;;;;;;2466095;55;21498;-84
2021/01/15 01:04:24;;;;;;;3.20;1.50;;;4.30;71.10;;;;;;2488776;55;21007;-85
2021/01/15 01:06:52;;;;;;;3.22;1.52;;;4.30;71.10;;;;;;2491261;55;20929;-84
2021/01/15 01:09:18;;;;;;;3.22;1.73;;;4.30;71.20;;;;;;2489172;55;21005;-83
2021/01/15 01:11:44;;;;;;;3.33;1.60;;;4.30;71.20;;;;;;2488028;55;21529;-84
2021/01/15 01:14:11;;;;;;;3.42;1.55;;;4.30;71.20;;;;;;2486105;55;21542;-85
2021/01/15 01:16:37;;;;;;;3.92;1.73;;;4.30;71.10;;;;;;2485429;55;20988;-84
2021/01/15 01:19:04;;;;;;;2.83;1.35;;;4.30;71.10;;;;;;2485899;55;20949;-83
2021/01/15 01:21:34;;;;;;;3.78;1.52;;;4.30;71.00;;;;;;2490127;55;21081;-84
2021/01/15 01:24:00;;;;;;;3.97;1.67;;;4.30;71.10;;;;;;2489656;55;21033;-82
2021/01/15 01:26:27;;;;;;;3.53;1.60;;;4.40;71.20;;;;;;2467820;55;20985;-83
2021/01/15 01:28:53;;;;;;;3.20;1.50;;;4.30;71.10;;;;;;2484374;55;21025;-84
2021/01/15 01:31:20;;;;;;;4.43;1.65;;;4.30;71.20;;;;;;2487861;55;21068;-85
2021/01/15 01:33:48;;;;;;;2.78;1.25;;;4.30;71.20;;;;;;2487545;55;20936;-86
2021/01/15 01:36:15;;;;;;;3.35;1.75;;;4.30;71.20;;;;;;2486670;55;21605;-85
2021/01/15 01:38:43;;;;;;;4.87;1.80;;;4.30;71.30;;;;;;2487608;55;20953;-85
2021/01/15 01:41:09;;;;;;;3.70;1.75;;;4.30;71.30;;;;;;2486348;55;21040;-84
2021/01/15 01:43:36;;;;;;;3.55;1.62;;;4.30;71.30;;;;;;2263172;56;20917;-82
2021/01/15 01:46:07;;;;;;;3.67;1.92;;;4.20;71.20;;;;;;2259651;56;20945;-82
2021/01/15 01:48:33;;;;;;;4.43;2.25;;;4.30;71.20;;;;;;2472377;55;21066;-82
2021/01/15 01:51:01;;;;;;;3.83;1.83;;;4.30;71.20;;;;;;2479525;55;20989;-83
2021/01/15 01:53:30;;;;;;;4.50;2.30;;;4.20;71.20;;;;;;2489911;55;20906;-83
2021/01/15 01:55:57;;;;;;;3.53;1.83;;;4.20;71.20;;;;;;2487779;55;20942;-82
2021/01/15 01:58:23;;;;;;;3.70;1.95;;;4.20;71.20;;;;;;2466884;55;21118;-83
2021/01/15 02:00:57;;;;;;;5.18;2.35;;;4.20;71.20;;;;;;2490292;55;21001;-85
2021/01/15 02:03:23;;;;;;;4.95;2.08;;;4.20;71.30;;;;;;2486061;55;20933;-83
2021/01/15 02:05:50;;;;;;;3.47;1.95;;;4.20;71.20;;;;;;2491323;55;20989;-84
2021/01/15 02:08:16;;;;;;;3.35;1.80;;;4.20;71.30;;;;;;2491366;55;21398;-82
2021/01/15 02:10:57;;;;;;;4.22;2.10;;;4.20;71.40;;;;;;2489189;55;20940;-83
2021/01/15 02:13:41;;;;;;;5.78;2.25;;;4.20;71.40;;;;;;2484756;55;21514;-83
2021/01/15 02:16:10;;;;;;;5.07;2.30;;;4.20;71.40;;;;;;2487198;55;21035;-84
2021/01/15 02:18:46;;;;;;;4.40;2.15;;;4.20;71.50;;;;;;2260963;56;20990;-83
2021/01/15 02:21:54;;;;;;;5.12;2.75;;;4.20;71.50;;;;;;2489713;55;21052;-84
2021/01/15 02:26:30;;;;;;;4.32;2.25;;;4.30;71.50;;;;;;2486479;55;20956;-82
2021/01/15 02:31:51;;;;;;;5.93;2.67;;;4.20;72.00;;;;;;2487118;55;21866;-83
2021/01/15 02:34:52;;;;;;;4.55;2.15;;;4.20;71.20;;;;;;2487585;55;21759;-84
2021/01/15 02:37:27;;;;;;;4.47;2.53;;;4.20;71.40;;;;;;2489934;55;20964;-86
2021/01/15 02:40:20;;;;;;;4.55;2.53;;;4.20;71.40;;;;;;2486844;55;20957;-83
2021/01/15 02:42:46;;;;;;;;;;;4.20;71.50;;;;;;2488265;55;20972;-84
2021/01/15 02:45:12;;;;;;;5.70;2.62;;;4.20;71.20;;;;;;2491466;55;20381;-86
2021/01/15 02:47:54;;;;;;;4.60;2.47;;;4.00;71.50;;;;;;2491821;55;20945;-84
2021/01/15 02:50:25;;;;;;;5.57;2.50;;;4.20;71.50;;;;;;2487098;55;21481;-84
2021/01/15 02:52:54;;;;;;;4.70;2.72;;;4.20;71.60;;;;;;2490957;55;21010;-84
2021/01/15 02:55:20;;;;;;;6.22;2.87;;;4.20;71.50;;;;;;2491236;55;20952;-86
2021/01/15 02:57:48;;;;;;;5.05;2.40;;;4.20;71.60;;;;;;2490141;55;20977;-84
2021/01/15 03:00:16;;;;;;;4.90;2.53;;;4.20;71.60;;;;;;2260091;56;20909;-82
2021/01/15 03:03:05;;;;;;;5.78;3.03;;;4.20;71.60;;;;;;2487588;55;21528;-84
2021/01/15 03:05:50;;;;;;;5.65;3.17;;;4.20;71.50;;;;;;2488172;55;20910;-83
2021/01/15 03:08:18;;;;;;;4.28;2.50;;;4.20;71.50;;;;;;2488715;55;20949;-83
2021/01/15 03:10:44;;;;;;;5.87;3.08;;;4.20;71.50;;;;;;2489544;55;20989;-82
2021/01/15 03:13:14;;;;;;;4.50;2.50;;;4.10;71.40;;;;;;2466910;55;20941;-82
2021/01/15 03:15:45;;;;;;;6.10;3.28;;;4.10;71.40;;;;;;2488932;55;21429;-84
2021/01/15 03:18:12;;;;;;;4.87;2.78;;;4.20;71.50;;;;;;2489403;55;20956;-84
2021/01/15 03:20:38;;;;;;;5.43;2.95;;;4.30;71.60;;;;;;2489400;55;20989;-86
2021/01/15 03:23:09;;;;;;;5.43;2.62;;;4.10;71.40;;;;;;2490691;55;21457;-85
2021/01/15 03:25:35;;;;;;;5.65;2.97;;;4.10;71.50;;;;;;2492985;55;20956;-83
2021/01/15 03:28:17;;;;;;;5.28;2.75;;;4.20;71.50;;;;;;2261848;56;20947;-85
2021/01/15 03:30:44;;;;;;;5.82;2.95;;;4.20;71.40;;;;;;2492295;55;20929;-84
2021/01/15 03:33:10;;;;;;;5.68;3.05;;;4.20;71.50;;;;;;2483884;55;21005;-84
2021/01/15 03:35:37;;;;;;;5.47;2.97;;;4.20;71.50;;;;;;2488393;55;20926;-85
2021/01/15 03:38:07;;;;;;;5.55;3.00;;;4.20;71.50;;;;;;2263199;56;20965;-82
2021/01/15 03:40:37;;;;;;;7.05;3.40;;;4.20;71.60;;;;;;2490279;55;21072;-85
2021/01/15 03:43:19;;;;;;;4.93;2.80;;;4.10;71.50;;;;;;2258912;56;20969;-85
2021/01/15 03:45:47;;;;;;;6.00;3.30;;;4.20;71.50;;;;;;2493018;55;20925;-83
2021/01/15 03:48:16;;;;;;;5.40;3.22;;;4.20;71.50;;;;;;2488156;55;20944;-83
2021/01/15 03:50:43;;;;;;;5.95;3.40;;;4.20;71.50;;;;;;2487602;55;21449;-84
2021/01/15 03:53:12;;;;;;;6.82;3.60;;;4.10;71.40;;;;;;2487957;55;21513;-83
2021/01/15 03:55:39;;;;;;;9.05;4.07;;;4.10;71.30;;;;;;2492662;55;20968;-83
2021/01/15 03:58:06;;;;;;;7.12;3.95;;;4.10;71.20;;;;;;2492730;55;21033;-82
2021/01/15 04:00:32;;;;;;;8.02;4.47;;;4.10;71.10;;;;;;2489696;55;20968;-82
2021/01/15 04:03:01;;;;;;;8.50;4.45;;;4.10;71.20;;;;;;2489758;55;20941;-85
2021/01/15 04:05:27;;;;;;;8.70;4.70;;;4.10;71.20;;;;;;2490008;55;21056;-82
2021/01/15 04:07:54;;;;;;;8.90;5.25;;;4.10;71.20;;;;;;2263628;56;20961;-84
2021/01/15 04:10:21;;;;;;;8.57;4.57;;;4.10;71.30;;;;;;2491414;55;21024;-84
2021/01/15 04:12:48;;;;;;;8.25;4.57;;;4.10;71.30;;;;;;2492678;55;20942;-83
2021/01/15 04:15:27;;;;;;;10.68;4.78;;;4.10;71.30;;;;;;2492374;55;20945;-83
2021/01/15 04:17:58;;;;;;;8.35;4.62;;;4.10;71.40;;;;;;2488658;55;20953;-83
2021/01/15 04:20:28;;;;;;;6.95;3.70;;;4.10;71.50;;;;;;2487743;55;20998;-85
2021/01/15 04:22:56;;;;;;;8.13;4.32;;;4.10;71.40;;;;;;2466529;55;21001;-84
2021/01/15 04:25:26;;;;;;;7.37;4.10;;;4.10;71.40;;;;;;2475561;55;20945;-85
2021/01/15 04:27:53;;;;;;;6.65;3.70;;;4.10;71.40;;;;;;2489745;55;21021;-82
2021/01/15 04:30:20;;;;;;;7.85;3.92;;;4.10;71.40;;;;;;2486857;55;20897;-83
2021/01/15 04:32:47;;;;;;;6.82;3.90;;;4.10;71.60;;;;;;2486284;55;21033;-86
2021/01/15 04:35:18;;;;;;;5.43;3.12;;;4.10;71.70;;;;;;2491401;55;20938;-85
2021/01/15 04:37:44;;;;;;;6.30;3.53;;;4.10;71.70;;;;;;2487773;55;20925;-86
2021/01/15 04:40:11;;;;;;;7.03;3.10;;;4.10;71.60;;;;;;2490044;55;20993;-83
2021/01/15 04:42:43;;;;;;;5.50;3.08;;;4.10;71.60;;;;;;2488446;55;20985;-84
2021/01/15 04:45:30;;;;;;;6.45;3.22;;;4.10;71.60;;;;;;2490526;55;21355;-86
2021/01/15 04:47:57;;;;;;;5.70;2.90;;;4.10;71.40;;;;;;2485553;55;21445;-84
2021/01/15 04:50:25;;;;;;;6.22;3.20;;;4.10;71.40;;;;;;2468462;55;21052;-84
2021/01/15 04:52:52;;;;;;;5.37;2.80;;;4.10;71.30;;;;;;2473398;55;20937;-84
2021/01/15 04:55:25;;;;;;;7.90;3.40;;;4.30;71.50;;;;;;2491301;55;21706;-86
2021/01/15 04:57:53;;;;;;;5.57;3.17;;;4.10;71.40;;;;;;2486121;55;20960;-84
2021/01/15 05:00:25;;;;;;;6.60;3.45;;;4.10;71.40;;;;;;2487424;55;21339;-83
2021/01/15 05:02:51;;;;;;;7.23;3.67;;;4.10;71.40;;;;;;2489554;55;21029;-85
2021/01/15 05:05:23;;;;;;;7.28;3.87;;;4.10;71.20;;;;;;2490758;55;21665;-85
2021/01/15 05:08:14;;;;;;;8.95;4.40;;;4.10;71.30;;;;;;2486155;55;20957;-82
2021/01/15 05:10:43;;;;;;;7.93;4.03;;;4.10;71.10;;;;;;2487346;55;21067;-85
2021/01/15 05:13:11;;;;;;;9.88;4.97;;;4.10;71.10;;;;;;2486875;55;20980;-86
2021/01/15 05:15:38;;;;;;;11.45;5.18;;;4.10;71.20;;;;;;2489255;55;20945;-85
2021/01/15 05:18:08;;;;;;;9.60;5.15;;;4.10;71.20;;;;;;2485992;55;21036;-85
2021/01/15 05:20:34;;;;;;;10.55;5.20;;;4.10;71.20;;;;;;2483775;55;22323;-84
2021/01/15 05:23:08;;;;;;;9.10;5.07;;;4.10;71.10;;;;;;2485111;55;20952;-85
2021/01/15 05:25:54;;;;;;;8.77;4.97;;;4.10;71.30;;;;;;2259384;56;20934;-84
2021/01/15 05:28:21;;;;;;;10.77;5.32;;;4.10;71.20;;;;;;2485752;55;21820;-84
2021/01/15 05:30:58;;;;;;;11.68;6.40;;;4.10;71.10;;;;;;2483598;55;21691;-83
2021/01/15 05:33:26;;;;;;;11.15;5.80;;;4.10;71.20;;;;;;2473578;55;21008;-85
2021/01/15 05:35:56;;;;;;;11.12;5.90;;;4.10;71.20;;;;;;2481595;55;20976;-85
2021/01/15 05:38:27;;;;;;;11.55;5.82;;;4.00;71.10;;;;;;2485415;55;21373;-85
2021/01/15 05:40:55;;;;;;;11.68;5.97;;;4.00;71.10;;;;;;2480614;55;20969;-84
2021/01/15 05:43:30;;;;;;;14.30;7.03;;;4.10;71.20;;;;;;2481381;55;21009;-84
2021/01/15 05:46:11;;;;;;;13.48;7.07;;;4.00;71.10;;;;;;2483534;55;21413;-83
2021/01/15 05:48:44;;;;;;;13.93;7.18;;;4.00;71.00;;;;;;2485223;55;21632;-84
2021/01/15 05:51:32;;;;;;;13.27;6.80;;;4.00;71.10;;;;;;2479762;55;21686;-84
2021/01/15 05:54:10;;;;;;;13.27;6.37;;;4.00;71.10;;;;;;2482765;55;21097;-83
2021/01/15 05:56:57;;;;;;;14.65;7.70;;;4.00;71.20;;;;;;2257297;56;21001;-84
2021/01/15 05:59:27;;;;;;;13.52;7.32;;;4.00;71.10;;;;;;2257349;56;21034;-84
2021/01/15 06:02:02;;;;;;;12.32;6.43;;;4.00;71.00;;;;;;2468128;55;21146;-85
2021/01/15 06:04:49;;;;;;;13.50;6.85;;;4.00;71.20;;;;;;2473112;55;20965;-84
2021/01/15 06:07:20;;;;;;;13.48;7.10;;;4.00;71.30;;;;;;2258203;56;20997;-85
2021/01/15 06:09:52;;;;;;;13.07;6.53;;;4.00;71.30;;;;;;2481491;55;21501;-86
2021/01/15 06:12:20;;;;;;;15.18;7.07;;;4.00;71.40;;;;;;2484608;55;21482;-83
2021/01/15 06:14:58;;;;;;;10.70;6.15;;;4.00;71.40;;;;;;2260435;56;20956;-84
2021/01/15 06:17:25;;;;;;;13.48;7.22;;;4.00;71.40;;;;;;2482932;55;20954;-84
2021/01/15 06:19:57;;;;;;;12.43;6.53;;;4.10;71.40;;;;;;2483214;55;20941;-84
2021/01/15 06:22:49;;;;;;;12.60;6.03;;;4.10;71.50;;;;;;2484763;55;21001;-85
2021/01/15 06:25:36;;;;;;;12.50;6.50;;;4.10;71.60;;;;;;2489878;55;20957;-85
2021/01/15 06:28:12;;;;;;;17.02;7.75;;;4.10;71.50;;;;;;2482529;55;21065;-85
2021/01/15 06:30:38;;;;;;;14.00;7.28;;;4.10;71.70;;;;;;2477591;55;20946;-85
2021/01/15 06:33:11;;;;;;;14.48;7.35;;;4.10;71.50;;;;;;2486333;55;20945;-85
2021/01/15 06:35:43;;;;;;;14.70;7.60;;;4.10;71.50;;;;;;2483251;55;21002;-84
2021/01/15 06:38:15;;;;;;;;;;;4.10;71.50;;;;;;2489681;55;20953;-85
2021/01/15 06:40:47;;;;;;;17.95;8.02;;;4.10;71.10;;;;;;2261204;56;20070;-85
2021/01/15 06:43:47;;;;;;;17.08;8.40;;;4.10;71.20;;;;;;2269077;56;21020;-85
2021/01/15 06:46:17;;;;;;;19.23;8.23;;;4.10;71.00;;;;;;2479476;55;21030;-84
2021/01/15 06:48:44;;;;;;;18.62;8.75;;;4.10;71.20;;;;;;2479172;55;21442;-84
2021/01/15 06:51:15;;;;;;;17.73;8.32;;;4.10;71.30;;;;;;2490543;55;21041;-84
2021/01/15 06:53:41;;;;;;;17.15;7.70;;;4.10;71.30;;;;;;2491301;55;21042;-87
2021/01/15 06:56:09;;;;;;;18.85;8.75;;;4.00;71.20;;;;;;2473708;55;20912;-84
2021/01/15 06:58:41;;;;;;;15.10;7.95;;;4.10;71.30;;;;;;2486210;55;20969;-84
2021/01/15 07:01:23;;;;;;;;;;;4.10;71.30;;;;;;2491444;55;20997;-84
2021/01/15 07:04:25;;;;;;;16.77;7.37;;;4.10;71.00;;;;;;2493160;55;20088;-83
2021/01/15 07:07:33;;;;;;;14.73;7.35;;;4.00;71.00;;;;;;2492051;55;22034;-83
2021/01/15 07:10:01;;;;;;;15.65;7.62;;;4.00;71.00;;;;;;2492918;55;20945;-83
2021/01/15 07:12:27;;;;;;;16.75;8.68;;;4.00;71.00;;;;;;2495200;55;21296;-82
2021/01/15 07:14:58;;;;;;;18.55;9.75;;;4.00;70.90;;;;;;2491905;55;20963;-82
2021/01/15 07:17:34;;;;;;;19.30;8.82;;;4.00;71.10;;;;;;2493609;55;20913;-82
2021/01/15 07:23:13;;;;;;;15.25;8.20;;;4.00;71.30;;;;;;2489328;55;20981;-83
2021/01/15 07:25:48;;;;;;;14.30;6.95;;;4.00;71.00;;;;;;2492455;55;21041;-82
2021/01/15 07:28:14;;;;;;;15.05;7.53;;;4.00;70.70;;;;;;2486318;55;21001;-82
2021/01/15 07:30:41;;;;;;;14.95;7.30;;;3.90;70.90;;;;;;2251275;56;21031;-81
2021/01/15 07:33:07;;;;;;;15.00;7.68;;;3.90;70.80;;;;;;2485765;55;21327;-82
2021/01/15 07:35:36;;;;;;;14.70;7.40;;;3.90;70.90;;;;;;2489493;55;21001;-81
2021/01/15 07:38:12;;;;;;;17.95;8.02;;;3.90;70.90;;;;;;2483001;55;21457;-81
2021/01/15 07:40:40;;;;;;;17.08;7.28;;;3.90;71.00;;;;;;2485460;55;21101;-82
2021/01/15 07:43:35;;;;;;;13.57;7.65;;;3.90;71.00;;;;;;2484961;55;21024;-81
2021/01/15 07:46:02;;;;;;;13.35;6.25;;;3.90;71.00;;;;;;2486330;55;20936;-81
2021/01/15 07:48:32;;;;;;;14.50;7.57;;;3.90;70.80;;;;;;2487824;55;21005;-81
2021/01/15 07:50:58;;;;;;;12.88;6.80;;;3.80;70.50;;;;;;2489265;55;20984;-81
2021/01/15 07:53:47;;;;;;;15.82;7.37;;;3.80;70.50;;;;;;2480458;55;21656;-80
2021/01/15 07:56:28;;;;;;;13.75;6.75;;;3.80;70.30;;;;;;2479728;55;20937;-81
2021/01/15 07:58:56;;;;;;;13.75;7.00;;;3.80;70.40;;;;;;2486391;55;20929;-80
2021/01/15 08:01:23;;;;;;;14.38;6.40;;;3.70;70.20;;;;;;2484113;55;20969;-80
2021/01/15 08:03:57;;;;;;;10.43;5.85;;;3.70;70.20;;;;;;2482821;55;20942;-80
2021/01/15 08:06:27;;;;;;;14.52;7.10;;;3.70;70.20;;;;;;2484054;55;20930;-79
2021/01/15 08:09:07;;;;;;;17.45;6.87;;;3.70;70.10;;;;;;2482179;55;21589;-79
2021/01/15 08:11:36;;;;;;;13.07;6.37;;;3.70;70.20;;;;;;2481024;55;21012;-80
2021/01/15 08:14:21;;;;;;;13.95;7.10;;;3.60;70.10;;;;;;2483698;55;21013;-80
2021/01/15 08:16:57;;;;;;;15.50;7.93;;;3.60;70.20;;;;;;2482060;55;20906;-79
2021/01/15 08:19:24;;;;;;;20.12;8.55;;;3.60;70.20;;;;;;2484076;55;20922;-79
2021/01/15 08:21:50;;;;;;;12.50;6.82;;;3.60;70.20;;;;;;2486171;55;21061;-79
2021/01/15 08:24:23;;;;;;;13.13;6.97;;;3.60;70.00;;;;;;2478346;55;21016;-78
2021/01/15 08:26:51;;;;;;;14.73;7.62;;;3.60;70.00;;;;;;2482882;55;22052;-79
2021/01/15 08:29:21;;;;;;;14.45;7.78;;;3.50;69.90;;;;;;2477862;55;21731;-79
2021/01/15 08:31:56;;;;;;;15.68;7.68;;;3.50;69.90;;;;;;2479347;55;21043;-79
2021/01/15 08:34:23;;;;;;;17.67;8.18;;;3.50;69.90;;;;;;2455893;55;21000;-78
2021/01/15 08:36:55;;;;;;;13.98;7.32;;;3.50;70.00;;;;;;2477886;55;20945;-79
2021/01/15 08:39:22;;;;;;;12.35;6.87;;;3.50;70.10;;;;;;2429331;55;1858627;-78
2021/01/15 08:42:00;;;;;;;14.55;7.18;;;3.50;70.20;;;;;;2479209;55;21998;-78
2021/01/15 08:44:34;;;;;;;16.85;7.60;;;3.50;70.40;;;;;;2479564;55;21040;-78
2021/01/15 08:47:11;;;;;;;13.82;7.55;;;3.50;70.50;;;;;;2479403;55;21359;-78
2021/01/15 08:49:39;;;;;;;13.82;7.47;;;3.50;70.30;;;;;;2475625;55;21708;-78
2021/01/15 08:52:09;;;;;;;15.07;8.00;;;3.50;70.20;;;;;;2460644;55;20921;-78
2021/01/15 08:54:37;;;;;;;15.43;7.87;;;3.50;70.00;;;;;;2478582;55;21001;-78
2021/01/15 08:57:04;;;;;;;14.95;6.95;;;3.50;69.90;;;;;;2478912;55;20929;-79
2021/01/15 08:59:32;;;;;;;13.95;6.87;;;3.50;70.00;;;;;;2488232;55;21415;-78
2021/01/15 09:02:01;;;;;;;14.40;7.62;;;3.50;69.90;;;;;;2486345;55;20904;-78
2021/01/15 09:04:31;;;;;;;17.00;8.20;;;3.50;70.00;;;;;;2469681;55;21072;-78
2021/01/15 09:06:58;;;;;;;12.60;6.95;;;3.50;70.00;;;;;;2477912;55;20918;-77
2021/01/15 09:09:28;;;;;;;13.20;6.97;;;3.50;70.00;;;;;;2458465;55;21001;-77
2021/01/15 09:12:00;;;;;;;12.07;6.80;;;3.40;69.80;;;;;;2478443;55;20937;-77
2021/01/15 09:14:33;;;;;;;13.25;7.30;;;3.40;69.70;;;;;;2504849;55;21816;-77
2021/01/15 09:17:00;;;;;;;13.30;6.47;;;3.40;70.00;;;;;;2457323;55;20936;-78
2021/01/15 09:19:26;;;;;;;11.43;6.03;;;3.40;69.80;;;;;;2478240;55;21441;-77
2021/01/15 09:22:00;;;;;;;13.93;7.10;;;3.40;70.00;;;;;;2481692;55;20921;-78
2021/01/15 09:24:31;;;;;;;11.60;7.03;;;3.40;70.30;;;;;;2459781;55;20981;-77
2021/01/15 09:27:04;;;;;;;12.18;6.50;;;3.40;70.50;;;;;;2483510;55;21008;-77
2021/01/15 09:29:34;;;;;;;12.50;7.07;;;3.40;70.50;;;;;;2477565;55;21048;-78
2021/01/15 09:32:04;;;;;;;12.60;6.60;;;3.40;70.40;;;;;;2450919;55;22085;-78
2021/01/15 09:34:30;;;;;;;13.50;7.30;;;3.40;70.30;;;;;;2464295;55;20972;-78
2021/01/15 09:36:57;;;;;;;11.60;6.30;;;3.50;70.40;;;;;;2481064;55;21020;-78
2021/01/15 09:39:26;;;;;;;10.90;5.93;;;3.50;70.50;;;;;;2478813;55;20945;-79
2021/01/15 09:41:56;;;;;;;13.15;7.18;;;3.50;70.50;;;;;;2481402;55;20917;-77
2021/01/15 09:44:25;;;;;;;11.35;6.47;;;3.50;70.60;;;;;;2479516;55;20949;-77
2021/01/15 09:47:01;;;;;;;13.75;7.12;;;3.50;70.70;;;;;;2473731;55;21096;-76
2021/01/15 09:49:31;;;;;;;12.88;6.75;;;3.50;70.70;;;;;;2257331;56;21387;-77
2021/01/15 09:51:57;;;;;;;9.48;5.78;;;3.60;70.90;;;;;;2477632;55;20925;-78
2021/01/15 09:54:24;;;;;;;12.32;6.85;;;3.60;70.90;;;;;;2477578;55;21053;-77
2021/01/15 09:56:50;;;;;;;13.23;6.57;;;3.70;71.10;;;;;;2476905;55;21045;-77
2021/01/15 09:59:17;;;;;;;13.20;6.45;;;3.70;71.10;;;;;;2481997;55;21000;-78
2021/01/15 10:01:53;;;;;;;13.10;6.80;;;3.70;71.20;;;;;;2483954;55;21449;-79
2021/01/15 10:04:20;;;;;;;11.32;6.00;;;3.70;71.30;;;;;;2486264;55;21521;-78
2021/01/15 10:06:46;;;;;;;13.77;7.15;;;3.80;71.20;;;;;;2481471;55;20981;-78
2021/01/15 10:09:14;;;;;;;14.38;7.12;;;3.80;71.70;;;;;;2475894;55;21028;-78
2021/01/15 10:11:44;;;;;;;12.68;7.28;;;3.90;72.50;;;;;;2477355;55;20961;-77
2021/01/15 10:14:13;;;;;;;12.88;7.25;;;4.00;73.30;;;;;;2482384;55;21002;-78
2021/01/15 10:16:42;;;;;;;12.23;6.90;;;4.10;73.50;;;;;;2483980;55;21541;-78
2021/01/15 10:19:09;;;;;;;10.75;6.62;;;4.20;73.60;;;;;;2477869;55;21009;-78
2021/01/15 10:21:37;;;;;;;11.00;6.45;;;4.40;73.80;;;;;;2478514;55;21049;-78
2021/01/15 10:24:06;;;;;;;11.45;6.72;;;4.50;74.20;;;;;;2482949;55;21009;-77
2021/01/15 10:26:33;;;;;;;10.55;5.70;;;4.60;74.90;;;;;;2478704;55;20929;-77
2021/01/15 10:29:05;;;;;;;10.43;6.25;;;4.80;75.70;;;;;;2476341;55;20936;-78
2021/01/15 10:31:42;;;;;;;11.90;6.45;;;5.00;76.10;;;;;;2481197;55;20937;-77
2021/01/15 10:34:30;;;;;;;9.65;6.37;;;5.20;75.70;;;;;;2479956;55;21009;-79
2021/01/15 10:36:56;;;;;;;10.43;5.87;;;5.40;75.00;;;;;;2483444;55;20981;-78
2021/01/15 10:39:24;;;;;;;10.82;5.80;;;5.60;74.50;;;;;;2481068;55;21032;-77
2021/01/15 10:41:53;;;;;;;11.48;6.45;;;5.60;73.40;;;;;;2482165;55;21808;-78
2021/01/15 10:44:20;;;;;;;11.48;6.90;;;5.70;72.20;;;;;;2484559;55;20973;-77
2021/01/15 10:46:51;;;;;;;11.40;6.55;;;5.70;71.00;;;;;;2481755;55;21005;-78
2021/01/15 10:49:19;;;;;;;11.45;6.97;;;5.60;70.00;;;;;;2481155;55;21952;-79
2021/01/15 10:51:47;;;;;;;13.77;7.70;;;5.60;69.60;;;;;;2260869;56;21005;-79
2021/01/15 10:54:15;;;;;;;12.98;7.78;;;5.50;69.60;;;;;;2463121;55;20928;-79
2021/01/15 10:56:43;;;;;;;16.17;9.10;;;5.40;70.60;;;;;;2481489;55;21597;-79
2021/01/15 10:59:09;;;;;;;18.10;9.57;;;5.40;72.00;;;;;;2462528;55;21020;-79
2021/01/15 11:01:40;;;;;;;15.30;9.95;;;5.50;73.40;;;;;;2479286;55;20977;-79
2021/01/15 11:04:07;;;;;;;13.98;9.18;;;5.70;74.80;;;;;;2478829;55;21665;-80
2021/01/15 11:06:37;;;;;;;17.08;9.13;;;5.90;75.90;;;;;;2480404;55;21086;-79
2021/01/15 11:09:08;;;;;;;13.85;8.15;;;6.20;76.50;;;;;;2477585;55;20993;-80
2021/01/15 11:11:46;;;;;;;12.37;8.25;;;6.40;76.60;;;;;;2476889;55;21384;-80
2021/01/15 11:14:13;;;;;;;11.52;7.07;;;6.70;76.60;;;;;;2479008;55;20937;-79
2021/01/15 11:16:43;;;;;;;10.52;6.70;;;6.90;77.10;;;;;;2479313;55;21101;-79
2021/01/15 11:19:10;;;;;;;11.40;7.45;;;7.20;77.50;;;;;;2463893;55;20908;-80
2021/01/15 11:21:36;;;;;;;10.52;7.05;;;7.50;77.10;;;;;;2484761;55;20973;-80
2021/01/15 11:24:03;;;;;;;10.95;6.50;;;7.70;76.10;;;;;;2488636;55;21004;-80
2021/01/15 11:26:31;;;;;;;8.98;5.78;;;7.80;74.90;;;;;;2483105;55;21009;-78
2021/01/15 11:29:02;;;;;;;8.50;5.97;;;7.90;73.50;;;;;;2485299;55;21065;-78
2021/01/15 11:31:28;;;;;;;8.15;5.35;;;8.00;71.80;;;;;;2483902;55;21784;-79
2021/01/15 11:33:54;;;;;;;9.35;5.90;;;7.90;70.50;;;;;;2481212;55;21742;-79
2021/01/15 11:36:21;;;;;;;7.90;4.95;;;7.80;69.40;;;;;;2479110;55;20929;-80
2021/01/15 11:38:50;;;;;;;8.02;5.50;;;7.70;68.70;;;;;;2481610;55;20965;-79
2021/01/15 11:41:17;;;;;;;9.43;4.97;;;7.60;68.00;;;;;;2479721;55;20941;-79
2021/01/15 11:43:44;;;;;;;7.95;5.35;;;7.40;67.40;;;;;;2255590;56;20988;-77
2021/01/15 11:46:10;;;;;;;8.95;5.55;;;7.30;67.20;;;;;;2480267;55;21004;-78
2021/01/15 11:48:47;;;;;;;10.25;5.68;;;7.10;66.90;;;;;;2480221;55;21359;-79
2021/01/15 11:51:13;;;;;;;9.45;5.47;;;6.90;67.20;;;;;;2476075;55;20985;-79
2021/01/15 11:53:40;;;;;;;9.60;5.65;;;6.80;67.60;;;;;;2482253;55;21074;-79
2021/01/15 11:56:07;;;;;;;9.35;5.75;;;6.70;67.90;;;;;;2482652;55;21032;-79
2021/01/15 11:58:37;;;;;;;8.55;5.45;;;6.60;68.30;;;;;;2478277;55;20973;-79
2021/01/15 12:01:03;;;;;;;9.20;6.07;;;6.60;68.90;;;;;;2478221;55;21731;-79
2021/01/15 12:03:33;;;;;;;9.60;5.87;;;6.50;70.00;;;;;;2478470;55;21024;-79
2021/01/15 12:06:00;;;;;;;9.93;5.90;;;6.50;70.30;;;;;;2474233;55;21810;-79
2021/01/15 12:08:27;;;;;;;9.25;5.90;;;6.50;70.50;;;;;;2484860;55;21813;-79
2021/01/15 12:10:55;;;;;;;9.68;5.95;;;6.60;71.10;;;;;;2480828;55;20977;-78
2021/01/15 12:13:25;;;;;;;10.68;6.50;;;6.60;71.50;;;;;;2477075;55;22055;-79
2021/01/15 12:15:55;;;;;;;8.52;5.68;;;6.70;71.40;;;;;;2479746;55;21028;-79
2021/01/15 12:18:22;;;;;;;9.65;5.43;;;6.80;71.50;;;;;;2483361;55;21013;-79
2021/01/15 12:20:49;;;;;;;7.95;5.07;;;6.80;71.20;;;;;;2480940;55;20969;-79
2021/01/15 12:23:16;;;;;;;8.32;4.78;;;6.90;71.60;;;;;;2482208;55;21612;-79
2021/01/15 12:25:42;;;;;;;8.63;5.55;;;6.90;70.90;;;;;;2483596;55;20969;-80
2021/01/15 12:28:09;;;;;;;8.05;5.05;;;6.90;71.20;;;;;;2479359;55;20965;-79
2021/01/15 12:30:35;;;;;;;8.02;5.05;;;7.10;71.60;;;;;;2481407;55;20992;-79
2021/01/15 12:33:08;;;;;;;9.15;5.53;;;7.10;71.50;;;;;;2488665;55;20965;-79
2021/01/15 12:35:35;;;;;;;9.00;5.32;;;7.20;71.30;;;;;;2483060;55;20973;-79
2021/01/15 12:38:08;;;;;;;8.13;5.28;;;7.30;71.30;;;;;;2482702;55;20961;-79
2021/01/15 12:40:36;;;;;;;8.50;4.87;;;7.40;70.60;;;;;;2485718;55;21009;-79
2021/01/15 12:43:03;;;;;;;9.52;5.80;;;7.40;70.10;;;;;;2483665;55;21109;-78
2021/01/15 12:45:35;;;;;;;10.15;5.82;;;7.60;70.30;;;;;;2482583;55;21012;-79
2021/01/15 12:48:03;;;;;;;8.23;4.85;;;7.50;70.10;;;;;;2485329;55;20921;-79
2021/01/15 12:50:29;;;;;;;9.73;5.90;;;7.60;70.00;;;;;;2486653;55;21459;-79
2021/01/15 12:52:57;;;;;;;9.30;5.50;;;7.70;70.50;;;;;;2463132;55;21527;-78
2021/01/15 12:55:26;;;;;;;9.73;5.50;;;7.70;69.30;;;;;;2485407;55;22339;-78
2021/01/15 12:57:53;;;;;;;8.15;5.53;;;7.70;68.80;;;;;;2485389;55;21661;-79
2021/01/15 13:00:20;;;;;;;10.35;6.00;;;7.70;68.80;;;;;;2488169;55;20937;-78
2021/01/15 13:02:48;;;;;;;8.18;5.30;;;7.70;68.80;;;;;;2484294;55;20965;-79
2021/01/15 13:05:14;;;;;;;8.07;5.50;;;7.80;68.70;;;;;;2484532;55;20921;-78
2021/01/15 13:07:41;;;;;;;7.78;5.00;;;7.80;68.70;;;;;;2484065;55;20945;-78
2021/01/15 13:10:08;;;;;;;9.65;5.93;;;7.80;68.70;;;;;;2487867;55;21508;-78
2021/01/15 13:12:35;;;;;;;7.85;5.25;;;7.90;68.90;;;;;;2484637;55;21044;-77
2021/01/15 13:15:05;;;;;;;9.95;5.72;;;7.90;68.70;;;;;;2483358;55;20941;-78
2021/01/15 13:17:31;;;;;;;8.00;5.20;;;8.00;68.90;;;;;;2487199;55;20989;-78
2021/01/15 13:20:00;;;;;;;9.27;5.82;;;8.10;69.10;;;;;;2484342;55;20942;-77